Camas, WA

12:49 PM PDT on September 20, 2014 (GMT -0700)
Riverhouse | Change Station
CLOSE
Current Station
Personal Weather Station
Location: Camas, WA
Elevation: 329 ft
Nearby Weather Stations

Elev 329 ft 45.64 °N, 122.37 °W | Updated 33 days ago

Clear
Clear
83 °F
Feels Like 83 °F
N
20
Wind Variable Wind from ENE
Gusts 34 mph

Today
High -- | Low -- °F
--% Chance of Precip.
Yesterday
High -- | Low -- °F
Precip. -- in
6:54 AM 7:10 PM
Waning Crescent, 11% visible
Pressure 29.92 in
Visibility 10.0 miles
Clouds Clear
Dew Point 54 °F
Humidity 37%
Rainfall 0.00 in
Snow Depth 0 in , 0 in , 0 in
UV 6 out of 12
Pollen 2.70 out of 12
Air Quality Not available.
Flu Activity Not available.
METAR KTTD 201853Z 10016G23KT 10SM CLR 29/12 A2992 RMK AO2 WSHFT 1830 SLP131 T02890122

More Conditions Fewer Conditions

Pressure 29.92 in
Visibility 10.0 miles
Clouds Clear
Dew Point 54 °F
Humidity 37%
Rainfall 0.00 in
Snow Depth 0 in , 0 in , 0 in
UV 6 out of 12
Pollen 2.70 out of 12
Air Quality Not available.
Flu Activity Not available.
METAR KTTD 201853Z 10016G23KT 10SM CLR 29/12 A2992 RMK AO2 WSHFT 1830 SLP131 T02890122

More Conditions Fewer Conditions

10-Day Weather Forecast

Almanac

Astronomy

Sep. 20, 2014 Rise Set
Actual Time 6:54 AM PDT 7:10 PM PDT
Civil Twilight 6:24 AM PDT 7:40 PM PDT
Nautical Twilight 5:49 AM PDT 8:15 PM PDT
Astronomical Twilight 5:13 AM PDT 8:51 PM PDT
Moon 3:30 AM PDT 5:23 PM PDT
Length of Visible Light 13h 15m
Length of Day
12h 16m
Tomorrow will be 3m 10s shorter.
Waning Crescent, 11% of the Moon is Illuminated
Today
Waning Crescent
Sep 24
New
Oct 1
First Quarter
Oct 8
Full
Oct 15
Last Quarter

Today's Extremes

State Highs State Lows

Community

WunderPhotos

Upload Photos

1,754,925 photos uploaded!

WunderBlogs® & News

Nearby

Snow Depth

Station Depth Elevation
Fish Lake 0 in 3371 ft
Trough 0 in 5300 ft
Swift Creek 0 in 3770 ft
Stevens Pass 0 in 4070 ft
Sourdough Gulch 0 in 4000 ft

Earthquake Activity

City Distance Mag. Time & Date
Seabeck, Washington 136 miles 4.0 3:06 AM PDT
2014-09-17
Minimum magnitude displayed is 2.5.

Coastal Water Temperatures

Place Temperature
No Stations Reporting

Nearby Weather Stations